Time;durP1;ratioP1;P1;durP2;ratioP2;P2;SDS_P1;SDS_P2;PMS_P1;PMS_P2;Temp;Humidity;BMP_temperature;BMP_pressure;BME280_temperature;BME280_humidity;BME280_pressure;Samples;Min_cycle;Max_cycle;Signal;HPM_P1;HPM_P2
2021/05/20 00:01:05;;;;;;;19.42;11.02;;;;;;;-150.07;39.01;63659.69;4980378;28;20027;-88
2021/05/20 00:03:32;;;;;;;21.63;11.68;;;;;;;-150.07;38.88;62382.75;4993296;28;20105;-87
2021/05/20 00:06:02;;;;;;;;;;;;;;;-150.07;38.45;62422.53;4979713;28;20133;-90
2021/05/20 00:08:29;;;;;;;20.52;10.27;;;;;;;-150.07;39.02;61918.13;4980022;28;19917;-90
2021/05/20 00:10:55;;;;;;;10.60;9.20;;;;;;;-150.07;37.27;62456.03;4980491;28;20037;-91
2021/05/20 00:13:22;;;;;;;18.60;9.95;;;;;;;-150.07;37.86;62200.69;4980487;28;20027;-92
2021/05/20 00:15:49;;;;;;;17.42;8.75;;;;;;;-150.07;37.56;62259.28;4981539;28;20085;-89
2021/05/20 00:18:16;;;;;;;14.57;10.02;;;;;;;-150.07;36.88;62215.31;4987194;28;20085;-90
2021/05/20 00:20:44;;;;;;;14.23;8.30;;;;;;;-150.07;35.76;62010.22;4985954;28;20038;-90
2021/05/20 00:23:11;;;;;;;17.42;7.65;;;;;;;-150.07;35.63;62556.47;4989376;28;20125;-89
2021/05/20 00:25:39;;;;;;;12.13;6.32;;;;;;;-150.07;35.78;62797.19;5007443;28;20023;-90
2021/05/20 00:28:06;;;;;;;10.95;6.45;;;;;;;-150.07;35.42;62671.59;4993758;28;20018;-89
2021/05/20 00:30:32;;;;;;;9.57;4.65;;;;;;;-150.07;33.94;62870.47;5006577;28;20124;-89
2021/05/20 00:32:59;;;;;;;6.63;4.97;;;;;;;-150.07;34.31;62520.91;4991115;28;20026;-90
2021/05/20 00:35:26;;;;;;;10.82;5.82;;;;;;;-150.07;34.72;62493.69;4991358;28;20027;-89
2021/05/20 00:37:53;;;;;;;11.45;6.18;;;;;;;-150.07;34.65;62661.13;4991668;28;20050;-89
2021/05/20 00:40:20;;;;;;;10.20;7.68;;;;;;;-150.07;34.76;62883.03;4994660;28;20035;-89
2021/05/20 00:42:48;;;;;;;12.38;8.48;;;;;;;-150.07;35.49;62562.75;4995093;28;20030;-89
2021/05/20 00:45:15;;;;;;;12.63;8.02;;;;;;;-150.07;35.10;62539.75;4992202;28;20030;-89
2021/05/20 00:47:42;;;;;;;30.77;7.15;;;;;;;-150.07;33.88;62617.19;5006776;28;20034;-90
2021/05/20 00:50:11;;;;;;;13.55;7.88;;;;;;;-150.07;34.39;63680.63;4982122;28;20030;-90
2021/05/20 00:52:38;;;;;;;14.32;7.72;;;;;;;-150.07;34.15;62504.16;4979777;28;20026;-90
2021/05/20 00:55:07;;;;;;;11.63;8.35;;;;;;;-150.07;33.98;64059.63;4988505;28;20018;-90
2021/05/20 00:57:35;;;;;;;12.95;8.18;;;;;;;-150.07;33.64;62366.03;4987542;28;20073;-90
2021/05/20 01:00:11;;;;;;;22.83;9.25;;;;;;;-150.07;33.94;62943.72;4980321;28;20070;-93
2021/05/20 01:02:42;;;;;;;18.05;9.13;;;;;;;-150.07;34.59;62671.59;4979227;28;20073;-90
2021/05/20 01:05:14;;;;;;;11.23;7.28;;;;;;;-150.07;33.87;62746.97;4979850;28;20023;-91
2021/05/20 01:07:41;;;;;;;10.00;7.38;;;;;;;-150.07;33.99;63002.34;4975744;28;20018;-91
2021/05/20 01:10:10;;;;;;;14.88;7.03;;;;;;;-150.07;34.28;64101.50;4980162;28;20630;-92
2021/05/20 01:12:37;;;;;;;14.68;7.82;;;;;;;-150.07;34.10;62736.50;4997433;28;20046;-91
2021/05/20 01:15:05;;;;;;;10.27;5.88;;;;;;;-150.07;35.33;62958.38;4982614;28;20081;-90
2021/05/20 01:17:32;;;;;;;9.35;5.80;;;;;;;-150.07;35.80;62926.97;4985111;28;20031;-92
2021/05/20 01:20:01;;;;;;;11.15;5.15;;;;;;;-150.07;36.31;62525.09;4987714;28;20098;-87
2021/05/20 01:22:28;;;;;;;9.95;6.70;;;;;;;-150.07;36.19;62374.38;4990797;28;20034;-89
2021/05/20 01:24:55;;;;;;;8.57;5.65;;;;;;;-150.07;36.18;62552.31;5015519;28;20033;-89
2021/05/20 01:27:23;;;;;;;11.52;6.18;;;;;;;-150.07;36.24;62537.66;5014805;28;20029;-89
2021/05/20 01:29:50;;;;;;;12.65;6.32;;;;;;;-150.07;35.69;62874.66;4996909;28;20121;-90
2021/05/20 01:32:17;;;;;;;12.07;6.45;;;;;;;-150.07;35.75;62732.31;4987274;28;20041;-89
2021/05/20 01:34:56;;;;;;;12.40;6.97;;;;;;;-150.07;36.41;62947.91;4983076;28;20094;-88
2021/05/20 01:37:23;;;;;;;14.65;7.70;;;;;;;-150.07;36.34;64158.03;4982965;28;20057;-89
2021/05/20 01:39:50;;;;;;;14.77;7.38;;;;;;;-150.07;36.37;62435.09;4986902;28;20035;-88
2021/05/20 01:42:17;;;;;;;23.83;7.63;;;;;;;-150.07;35.55;62615.09;5008383;28;20058;-89
2021/05/20 01:44:44;;;;;;;15.57;7.00;;;;;;;-150.07;35.52;62749.06;4994450;28;20372;-90
2021/05/20 01:47:11;;;;;;;11.55;5.75;;;;;;;-150.07;34.74;63155.16;5001156;28;20034;-90
2021/05/20 01:49:38;;;;;;;11.93;6.10;;;;;;;-150.07;34.75;63017.00;5008389;28;20101;-89
2021/05/20 01:52:05;;;;;;;16.88;6.45;;;;;;;-150.07;34.91;63684.81;5005938;28;20030;-90
2021/05/20 01:54:32;;;;;;;11.00;6.00;;;;;;;-150.07;34.66;63004.44;4987291;28;20033;-86
2021/05/20 01:56:58;;;;;;;12.13;7.03;;;;;;;-150.07;34.67;63335.19;4986184;28;20494;-88
2021/05/20 01:59:26;;;;;;;14.93;6.03;;;;;;;-150.07;35.39;62993.97;4993307;28;20027;-90
2021/05/20 02:01:53;;;;;;;11.88;6.00;;;;;;;-150.07;34.54;63077.69;4987413;28;20081;-89
2021/05/20 02:04:19;;;;;;;9.95;5.15;;;;;;;-150.07;34.20;63136.31;4985295;28;20030;-88
2021/05/20 02:06:46;;;;;;;10.82;5.68;;;;;;;-150.07;34.81;62772.09;4979915;28;20026;-89
2021/05/20 02:09:13;;;;;;;7.68;4.38;;;;;;;-150.07;34.80;63006.53;4978900;28;20034;-89
2021/05/20 02:11:40;;;;;;;8.70;5.07;;;;;;;-150.07;34.34;62968.84;4980155;28;20026;-88
2021/05/20 02:14:07;;;;;;;11.68;4.15;;;;;;;-150.07;34.23;63123.75;4986573;28;20030;-87
2021/05/20 02:16:34;;;;;;;9.07;3.67;;;;;;;-150.07;33.86;64007.28;4980862;28;20026;-88
2021/05/20 02:19:01;;;;;;;9.55;4.53;;;;;;;-150.07;34.47;63728.78;4996452;28;20407;-90
2021/05/20 02:21:28;;;;;;;9.68;4.57;;;;;;;-150.07;34.26;62853.72;4996165;28;20015;-87
2021/05/20 02:23:55;;;;;;;10.00;5.10;;;;;;;-150.07;33.63;64107.78;4979898;28;20061;-90
2021/05/20 02:26:22;;;;;;;5.72;4.47;;;;;;;-150.07;33.85;63241.00;4980820;28;20030;-90
2021/05/20 02:28:48;;;;;;;5.72;4.68;;;;;;;-150.07;33.83;62987.69;4984609;28;20019;-89
2021/05/20 02:31:16;;;;;;;10.57;4.68;;;;;;;-150.07;33.67;63096.53;5001800;28;20072;-88
2021/05/20 02:33:43;;;;;;;9.65;4.72;;;;;;;-150.07;34.04;63224.25;4962547;28;20115;-86
2021/05/20 02:36:10;;;;;;;11.50;4.13;;;;;;;-150.07;33.59;63130.03;4979028;28;20772;-85
2021/05/20 02:38:36;;;;;;;6.80;4.60;;;;;;;-150.07;33.64;63241.00;4980543;28;20575;-86
2021/05/20 02:41:06;;;;;;;7.40;4.13;;;;;;;-150.07;33.63;63257.75;4981216;28;20034;-95
2021/05/20 02:43:35;;;;;;;11.23;4.05;;;;;;;-150.07;34.40;63046.31;4983716;28;20034;-93
2021/05/20 02:46:02;;;;;;;7.40;4.68;;;;;;;-150.07;33.68;63349.84;4984153;28;20149;-90
2021/05/20 02:48:29;;;;;;;9.05;4.22;;;;;;;-150.07;33.53;63257.75;4985777;28;20034;-93
2021/05/20 02:50:56;;;;;;;6.95;4.72;;;;;;;-150.07;33.75;63391.72;4986125;28;20026;-91
2021/05/20 02:53:23;;;;;;;9.50;4.35;;;;;;;-150.07;33.95;63243.09;4989709;28;20031;-89
2021/05/20 02:55:50;;;;;;;14.15;5.35;;;;;;;-150.07;33.57;64710.88;4980358;28;20118;-93
2021/05/20 02:58:19;;;;;;;11.27;4.63;;;;;;;-150.07;34.53;63475.47;4984842;28;20098;-91
2021/05/20 03:00:47;;;;;;;8.23;4.73;;;;;;;-150.07;34.30;63467.09;4989062;28;20027;-92
2021/05/20 03:03:16;;;;;;;8.82;4.97;;;;;;;-150.07;34.54;64225.03;4982464;28;20023;-91
2021/05/20 03:05:43;;;;;;;8.27;4.15;;;;;;;-150.07;34.91;64199.91;4969067;28;20424;-90
2021/05/20 03:08:11;;;;;;;14.52;5.43;;;;;;;-150.07;35.17;63274.47;4994964;28;20034;-93
2021/05/20 03:10:40;;;;;;;9.15;4.60;;;;;;;-150.07;34.94;63299.59;4986306;28;20093;-90
2021/05/20 03:13:06;;;;;;;12.82;4.65;;;;;;;-150.07;34.55;63079.78;4980191;28;20033;-91
2021/05/20 03:15:33;;;;;;;6.75;4.72;;;;;;;-150.07;34.75;63004.44;4980606;28;20365;-90
2021/05/20 03:18:01;;;;;;;9.65;4.82;;;;;;;-150.07;34.76;62883.03;4981309;28;20030;-91
2021/05/20 03:20:28;;;;;;;8.65;4.55;;;;;;;-150.07;35.05;62989.78;4981903;28;20129;-92
2021/05/20 03:22:54;;;;;;;8.80;4.72;;;;;;;-150.07;35.57;63333.09;4982255;28;20407;-90
2021/05/20 03:25:22;;;;;;;7.75;4.28;;;;;;;-150.07;34.77;62945.81;4982639;28;20033;-90
2021/05/20 03:27:49;;;;;;;5.45;4.20;;;;;;;-150.07;35.19;63333.09;4982017;28;20011;-91
2021/05/20 03:30:16;;;;;;;7.68;3.95;;;;;;;-150.07;35.31;62887.22;4983423;28;20041;-91
2021/05/20 03:32:43;;;;;;;7.50;5.28;;;;;;;-150.07;35.42;63220.06;4998090;28;20031;-92
2021/05/20 03:35:11;;;;;;;15.90;6.25;;;;;;;-150.07;34.60;63500.59;4981928;28;20026;-90
2021/05/20 03:37:38;;;;;;;11.48;6.57;;;;;;;-150.07;34.78;63337.28;4985774;28;20381;-91
2021/05/20 03:40:07;;;;;;;10.25;5.10;;;;;;;-150.07;34.97;63569.69;4981752;28;20038;-90
2021/05/20 03:42:35;;;;;;;10.43;5.30;;;;;;;-150.07;34.57;63450.34;4984977;28;20030;-92
2021/05/20 03:45:03;;;;;;;10.93;5.38;;;;;;;-150.07;35.11;63069.31;4982057;28;20533;-91
2021/05/20 03:47:30;;;;;;;9.25;6.07;;;;;;;-150.07;34.91;63261.94;4982579;28;20030;-92
2021/05/20 03:49:57;;;;;;;19.88;6.72;;;;;;;-150.07;35.30;63370.78;4981316;28;20032;-91
2021/05/20 03:52:24;;;;;;;9.85;5.78;;;;;;;-150.07;35.74;63201.22;4981398;28;20172;-92
2021/05/20 03:54:51;;;;;;;10.52;5.97;;;;;;;-150.07;35.27;64654.31;4986441;28;20038;-91
2021/05/20 03:57:18;;;;;;;9.13;6.40;;;;;;;-150.07;34.85;63450.34;4990749;28;20041;-90
2021/05/20 03:59:45;;;;;;;6.78;5.53;;;;;;;-150.07;35.62;64581.03;5011285;28;20022;-91
2021/05/20 04:02:11;;;;;;;8.45;6.60;;;;;;;-150.07;35.01;63035.84;4986992;28;20026;-90
2021/05/20 04:04:38;;;;;;;11.23;6.20;;;;;;;-150.07;35.06;64160.13;4988121;28;20069;-92
2021/05/20 04:07:05;;;;;;;10.45;6.15;;;;;;;-150.07;35.96;63368.69;4998007;28;20014;-88
2021/05/20 04:09:32;;;;;;;7.90;6.60;;;;;;;-150.07;34.75;63092.34;4991423;28;20031;-92
2021/05/20 04:11:59;;;;;;;13.65;7.07;;;;;;;-150.07;34.48;64438.63;4979713;28;20480;-90
2021/05/20 04:14:26;;;;;;;9.40;5.63;;;;;;;-150.07;35.11;62901.88;4978081;28;20054;-89
2021/05/20 04:16:53;;;;;;;6.03;4.45;;;;;;;-150.07;33.34;63789.50;4979748;28;20034;-90
2021/05/20 04:19:20;;;;;;;5.07;3.65;;;;;;;-150.07;33.83;63908.84;4981009;28;20031;-92
2021/05/20 04:21:46;;;;;;;12.98;4.03;;;;;;;-150.07;32.77;62996.06;4980190;28;20391;-90
2021/05/20 04:24:13;;;;;;;6.90;3.78;;;;;;;-150.07;33.46;64007.28;4998310;28;20062;-90
2021/05/20 04:26:40;;;;;;;6.57;3.00;;;;;;;-150.07;33.28;63351.94;4980171;28;20476;-90
2021/05/20 04:29:09;;;;;;;9.07;4.35;;;;;;;-150.07;33.84;64199.91;4979522;28;20026;-90
2021/05/20 04:31:36;;;;;;;5.28;3.53;;;;;;;-150.07;33.16;63161.44;4980178;28;20037;-91
2021/05/20 04:34:03;;;;;;;7.63;5.22;;;;;;;-150.07;33.09;63182.38;4978108;28;20045;-90
2021/05/20 04:36:30;;;;;;;12.50;7.22;;;;;;;-150.07;34.03;63125.84;4978584;28;20034;-89
2021/05/20 04:39:01;;;;;;;4.75;4.18;;;;;;;-150.07;32.84;63031.66;4977254;28;20081;-89
2021/05/20 04:41:32;;;;;;;7.15;2.80;;;;;;;-150.07;31.50;63247.28;4976986;28;20030;-89
2021/05/20 04:43:59;;;;;;;4.22;2.70;;;;;;;-150.07;31.32;63272.38;4976838;28;20031;-88
2021/05/20 04:46:26;;;;;;;3.53;2.45;;;;;;;-150.07;31.74;64386.28;4981221;28;20030;-94
2021/05/20 04:48:54;;;;;;;4.60;2.90;;;;;;;-150.07;31.22;63157.25;4986895;28;20125;-92
2021/05/20 04:51:24;;;;;;;9.25;2.85;;;;;;;-150.07;31.46;64331.84;4985842;28;20037;-93
2021/05/20 04:53:51;;;;;;;3.95;3.10;;;;;;;-150.07;31.81;62790.91;4986826;28;21065;-95
2021/05/20 04:56:22;;;;;;;4.80;3.58;;;;;;;-150.07;31.15;63324.72;4987529;28;20369;-95
2021/05/20 04:58:52;;;;;;;3.38;2.47;;;;;;;-150.07;31.40;62694.63;4986306;28;20081;-92
2021/05/20 05:01:21;;;;;;;3.80;3.35;;;;;;;-150.07;30.87;63488.03;4986771;28;20019;-96
2021/05/20 05:03:50;;;;;;;6.60;3.47;;;;;;;-150.07;31.88;62665.31;5003834;28;20073;-94
2021/05/20 05:06:17;;;;;;;2.60;2.13;;;;;;;-150.07;30.21;64233.41;4983947;28;20117;-92
2021/05/20 05:08:44;;;;;;;6.25;3.35;;;;;;;-150.07;31.17;63504.78;4983188;28;20036;-94
2021/05/20 05:11:14;;;;;;;6.97;2.70;;;;;;;-150.07;30.78;63454.53;4993243;28;20026;-95
2021/05/20 05:13:49;;;;;;;3.25;2.80;;;;;;;-150.07;30.14;63479.66;4985451;28;20045;-95
2021/05/20 05:16:24;;;;;;;7.78;3.90;;;;;;;-150.07;31.04;63467.09;5017979;28;20046;-96
2021/05/20 05:19:12;;;;;;;10.00;2.97;;;;;;;-150.07;32.19;63245.19;5001334;28;20025;-94
2021/05/20 05:21:43;;;;;;;5.47;2.60;;;;;;;-150.07;32.46;63255.66;5017750;28;20034;-94
2021/05/20 05:24:17;;;;;;;4.10;2.50;;;;;;;-150.07;32.58;62518.81;4997094;28;20030;-96
2021/05/20 05:26:44;;;;;;;5.53;3.15;;;;;;;-150.07;33.19;62839.06;4978954;28;20030;-95
2021/05/20 05:29:12;;;;;;;5.22;2.63;;;;;;;-150.07;33.73;64149.66;4992542;28;20026;-95
2021/05/20 05:31:56;;;;;;;5.13;2.53;;;;;;;-150.07;33.70;62730.22;5009423;28;20030;-95
2021/05/20 05:34:47;;;;;;;10.02;2.88;;;;;;;-150.07;32.79;63123.75;5013034;28;20033;-96
2021/05/20 05:37:23;;;;;;;7.10;2.45;;;;;;;-150.07;32.69;63291.22;4996586;28;20046;-95
2021/05/20 05:40:01;;;;;;;5.47;2.65;;;;;;;-150.07;32.46;62439.28;4999016;28;20123;-94
2021/05/20 05:42:32;;;;;;;5.25;3.28;;;;;;;-150.07;32.60;63203.31;4978860;28;20007;-95
2021/05/20 05:45:03;;;;;;;6.72;2.75;;;;;;;-150.07;33.01;63209.59;4980150;28;20109;-95
2021/05/20 05:47:33;;;;;;;7.82;2.90;;;;;;;-150.07;33.17;62973.03;4997533;28;20110;-94
2021/05/20 05:50:13;;;;;;;3.47;2.83;;;;;;;-150.07;33.32;63320.53;4999073;28;20030;-94
2021/05/20 05:52:45;;;;;;;12.75;3.08;;;;;;;-150.07;33.44;63776.94;4995748;28;20027;-95
2021/05/20 05:55:17;;;;;;;4.15;3.28;;;;;;;-150.07;34.03;62855.81;4994597;28;20035;-96
2021/05/20 05:58:01;;;;;;;3.33;2.85;;;;;;;-150.07;33.44;63153.06;4993865;28;20110;-94
2021/05/20 06:00:46;;;;;;;5.82;3.25;;;;;;;-150.07;33.92;63144.69;4993138;28;20123;-96
2021/05/20 06:03:21;;;;;;;7.82;4.18;;;;;;;-150.07;34.46;64091.03;4992140;28;20098;-95
2021/05/20 06:06:11;;;;;;;5.63;3.38;;;;;;;-150.07;33.83;63153.06;5010320;28;20107;-96
2021/05/20 06:09:17;;;;;;;4.30;3.13;;;;;;;-150.07;34.22;63140.50;4996484;28;20016;-93
2021/05/20 06:11:55;;;;;;;6.18;3.10;;;;;;;-150.07;34.49;62232.06;4994096;28;20042;-95
2021/05/20 06:14:29;;;;;;;5.70;3.55;;;;;;;-150.07;34.60;63653.41;4977101;28;20051;-96
2021/05/20 06:16:58;;;;;;;7.95;3.22;;;;;;;-150.07;34.80;62232.06;4993203;28;20030;-95
2021/05/20 06:19:31;;;;;;;6.70;2.85;;;;;;;-150.07;34.88;63111.19;4997842;28;20119;-94
2021/05/20 06:22:04;;;;;;;6.07;3.22;;;;;;;-150.07;35.20;63100.72;5000515;28;20061;-94
2021/05/20 06:24:43;;;;;;;3.78;2.38;;;;;;;-150.07;34.83;62412.06;5019055;28;20114;-92
2021/05/20 06:27:12;;;;;;;3.63;2.55;;;;;;;-150.07;35.32;64245.97;4996905;28;20041;-91
2021/05/20 06:29:45;;;;;;;9.27;3.03;;;;;;;-150.07;35.36;64061.72;4996442;28;20022;-95
2021/05/20 06:32:15;;;;;;;2.70;2.22;;;;;;;-150.07;35.65;62278.13;4991635;28;20042;-93
2021/05/20 06:34:42;;;;;;;6.30;2.45;;;;;;;-150.07;36.17;62906.06;4973767;28;20037;-94
2021/05/20 06:37:12;;;;;;;3.28;2.60;;;;;;;-150.07;36.34;62127.41;4975572;28;20043;-94
2021/05/20 06:39:40;;;;;;;3.80;2.72;;;;;;;-150.07;36.33;62650.69;4973358;28;20057;-95
2021/05/20 06:42:11;;;;;;;4.35;2.97;;;;;;;-150.07;36.10;63343.56;4976544;28;20106;-95
2021/05/20 06:44:40;;;;;;;3.28;3.08;;;;;;;-150.07;36.44;63609.47;4974879;28;20092;-94
2021/05/20 06:47:16;;;;;;;7.80;3.72;;;;;;;-150.07;36.11;61987.19;4991285;28;20030;-95
2021/05/20 06:49:52;;;;;;;5.68;2.45;;;;;;;-150.07;36.21;62154.63;5010722;28;20057;-95
2021/05/20 06:52:32;;;;;;;5.57;2.50;;;;;;;-150.07;36.63;63563.41;4995483;28;20022;-95
2021/05/20 06:55:00;;;;;;;7.00;3.10;;;;;;;-150.07;36.65;63961.22;4996958;28;20014;-95
2021/05/20 06:57:31;;;;;;;4.25;3.17;;;;;;;-150.07;37.14;62711.38;4998840;28;20034;-96
2021/05/20 07:00:05;;;;;;;5.25;2.83;;;;;;;-150.07;37.84;63490.13;4997770;28;20049;-94
2021/05/20 07:02:39;;;;;;;4.07;2.15;;;;;;;-150.07;37.58;63833.47;5010904;28;20058;-94
2021/05/20 07:05:09;;;;;;;7.50;2.67;;;;;;;-150.07;38.07;63395.91;4989744;28;20028;-95
2021/05/20 07:07:44;;;;;;;4.68;3.20;;;;;;;-150.07;38.19;62830.69;5005090;28;20073;-93
2021/05/20 07:10:18;;;;;;;8.05;3.22;;;;;;;-150.07;38.32;62340.91;5005665;28;20027;-94
2021/05/20 07:12:45;;;;;;;5.40;3.38;;;;;;;-150.07;38.26;61809.31;4989518;28;20038;-96
2021/05/20 07:15:18;;;;;;;4.45;3.08;;;;;;;-150.07;39.52;62345.09;4989938;28;20054;-96
2021/05/20 07:17:46;;;;;;;6.93;2.88;;;;;;;-150.07;39.75;61662.84;4973627;28;20039;-95
2021/05/20 07:20:16;;;;;;;3.90;3.00;;;;;;;-150.07;39.88;62386.94;5005102;28;20026;-96
2021/05/20 07:22:50;;;;;;;4.88;3.45;;;;;;;-150.07;40.74;62045.81;4972826;28;20046;-96
2021/05/20 07:25:41;;;;;;;4.15;3.08;;;;;;;-150.07;41.08;62575.31;5004609;28;20022;-96
2021/05/20 07:28:12;;;;;;;5.10;3.65;;;;;;;-150.07;41.52;63481.75;5006350;28;20026;-95
2021/05/20 07:30:40;;;;;;;8.73;3.20;;;;;;;-150.07;42.35;62345.09;4987790;28;20034;-95
2021/05/20 07:33:11;;;;;;;3.20;2.90;;;;;;;-150.07;43.15;62495.78;5020248;28;20042;-95
2021/05/20 07:35:45;;;;;;;3.25;2.95;;;;;;;-150.07;43.94;63471.28;5026353;28;20018;-95
2021/05/20 07:38:15;;;;;;;5.45;3.10;;;;;;;-150.07;44.04;62397.41;5006332;28;20042;-96
2021/05/20 07:40:48;;;;;;;3.70;3.40;;;;;;;-150.07;43.49;62248.81;5024802;28;20042;-94
2021/05/20 07:43:19;;;;;;;5.45;3.47;;;;;;;-150.07;43.74;63044.22;4993674;28;20030;-95
2021/05/20 07:45:49;;;;;;;4.63;3.50;;;;;;;-150.07;44.00;63787.41;4988822;28;20570;-93
2021/05/20 07:48:18;;;;;;;4.15;3.22;;;;;;;-150.07;44.62;62039.53;4986475;28;20045;-96
2021/05/20 07:50:46;;;;;;;5.93;3.10;;;;;;;-150.07;44.71;62152.53;5002013;28;20034;-95
2021/05/20 07:53:13;;;;;;;4.80;2.97;;;;;;;-150.07;44.72;62357.66;4986478;28;20031;-94
2021/05/20 07:55:44;;;;;;;9.02;3.92;;;;;;;-150.07;45.08;62058.34;4971277;28;20026;-95
2021/05/20 07:58:12;;;;;;;4.50;3.83;;;;;;;-150.07;45.09;62315.78;4985405;28;20045;-94
2021/05/20 08:00:39;;;;;;;9.30;4.47;;;;;;;-150.07;45.81;63517.34;4988953;28;20026;-94
2021/05/20 08:03:21;;;;;;;6.80;5.97;;;;;;;-150.07;47.21;61930.69;4990012;28;20019;-96
2021/05/20 08:08:33;;;;;;;8.80;5.50;;;;;;;-150.07;49.36;61972.56;5024670;28;20030;-95
2021/05/20 08:11:04;;;;;;;5.40;4.90;;;;;;;-150.07;49.64;62188.13;5009444;28;20038;-96
2021/05/20 08:13:36;;;;;;;9.73;7.10;;;;;;;-150.07;50.36;62152.53;4960940;28;20114;-88
2021/05/20 08:16:10;;;;;;;8.20;6.00;;;;;;;-150.07;51.17;61842.81;4985950;28;20063;-95
2021/05/20 08:18:37;;;;;;;9.48;6.07;;;;;;;-150.07;52.30;61865.81;4971358;28;20049;-91
2021/05/20 08:21:05;;;;;;;7.25;5.57;;;;;;;-150.07;53.21;62073.00;5001070;28;20037;-91
2021/05/20 08:23:33;;;;;;;7.78;5.55;;;;;;;-150.07;54.47;62020.69;4982241;28;20120;-94
2021/05/20 08:26:02;;;;;;;8.13;5.70;;;;;;;-150.07;54.29;63161.44;4982132;28;20023;-94
2021/05/20 08:28:29;;;;;;;8.35;4.82;;;;;;;-150.07;54.62;61813.50;4979731;28;20034;-92
2021/05/20 08:30:57;;;;;;;6.20;5.10;;;;;;;-150.07;54.78;61811.41;4979987;28;20141;-92
2021/05/20 08:33:24;;;;;;;10.25;4.88;;;;;;;-150.07;55.40;61671.19;4984640;28;20093;-92
2021/05/20 08:35:54;;;;;;;8.90;5.18;;;;;;;-150.07;56.00;61369.88;4992725;28;20030;-95
2021/05/20 08:38:28;;;;;;;7.63;4.43;;;;;;;-150.07;55.05;61455.66;4984211;28;20050;-89
2021/05/20 08:40:57;;;;;;;3.97;3.58;;;;;;;-150.07;54.92;61955.81;4998312;28;20080;-93
2021/05/20 08:43:32;;;;;;;4.47;3.38;;;;;;;-150.07;54.92;61759.09;5001884;28;20030;-94
2021/05/20 08:46:02;;;;;;;6.40;3.40;;;;;;;-150.07;54.79;62784.63;4990961;28;20026;-93
2021/05/20 08:48:29;;;;;;;5.68;3.67;;;;;;;-150.07;55.50;61878.38;4980357;28;20058;-81
2021/05/20 08:50:57;;;;;;;4.53;3.80;;;;;;;-150.07;54.92;61943.25;4990156;28;20026;-81
2021/05/20 08:53:24;;;;;;;4.80;3.60;;;;;;;-150.07;54.97;61999.75;4990650;28;20032;-82
2021/05/20 08:55:50;;;;;;;6.30;3.60;;;;;;;-150.07;54.27;61991.38;4973323;28;20027;-80
2021/05/20 08:58:22;;;;;;;7.97;3.60;;;;;;;-150.07;54.40;61579.13;4990860;28;20423;-81
2021/05/20 09:00:49;;;;;;;6.00;3.47;;;;;;;-150.07;53.95;61796.75;4990962;28;20080;-81
2021/05/20 09:03:16;;;;;;;9.20;3.85;;;;;;;-150.07;54.27;62047.91;4990633;28;20483;-81
2021/05/20 09:05:43;;;;;;;8.35;5.95;;;;;;;-150.07;54.14;62026.97;4979134;28;20031;-83
2021/05/20 09:08:15;;;;;;;8.05;6.15;;;;;;;-150.07;54.31;62089.75;4990199;28;20019;-84
2021/05/20 09:10:45;;;;;;;6.28;5.20;;;;;;;-150.07;53.23;63358.22;4991485;28;20034;-85
2021/05/20 09:13:17;;;;;;;13.20;5.43;;;;;;;-150.07;52.65;62177.66;4973969;28;20387;-83
2021/05/20 09:15:49;;;;;;;9.50;5.18;;;;;;;-150.07;52.69;62102.31;4994483;28;20030;-93
2021/05/20 09:18:21;;;;;;;5.90;4.03;;;;;;;-150.07;52.46;62167.19;4973755;28;20042;-95
2021/05/20 09:20:51;;;;;;;5.57;3.88;;;;;;;-150.07;52.34;61928.59;4996390;28;20030;-96
2021/05/20 09:23:32;;;;;;;4.50;3.50;;;;;;;-150.07;52.13;61353.13;4972581;28;20193;-94
2021/05/20 09:26:09;;;;;;;4.43;3.92;;;;;;;-150.07;52.17;62160.91;5002769;28;20030;-96
2021/05/20 09:28:49;;;;;;;4.85;4.30;;;;;;;-150.07;52.59;62116.97;5002182;28;20133;-94
2021/05/20 09:31:16;;;;;;;;;;;;;;;-150.07;52.27;62188.13;4962626;28;20097;-94
2021/05/20 09:33:54;;;;;;;9.40;4.35;;;;;;;-150.07;52.08;61549.84;4990594;28;19917;-96
2021/05/20 09:36:22;;;;;;;6.47;3.28;;;;;;;-150.07;52.13;63301.69;4999289;28;20030;-95
2021/05/20 09:39:14;;;;;;;8.40;4.43;;;;;;;-150.07;52.30;63425.22;4990658;28;20089;-95
2021/05/20 09:41:43;;;;;;;3.78;2.67;;;;;;;-150.07;50.32;62146.25;4989642;28;20039;-94
2021/05/20 09:44:35;;;;;;;8.25;3.38;;;;;;;-150.07;49.93;61794.66;5004853;28;20042;-96
2021/05/20 09:47:14;;;;;;;3.83;3.22;;;;;;;-150.07;50.17;61886.75;4991895;28;20058;-95
2021/05/20 09:50:02;;;;;;;8.57;4.00;;;;;;;-150.07;50.56;62273.94;5000589;28;20055;-90
2021/05/20 09:52:41;;;;;;;8.00;3.50;;;;;;;-150.07;51.65;62194.41;4990237;28;20057;-95
2021/05/20 09:55:32;;;;;;;4.57;3.50;;;;;;;-150.07;51.67;61669.09;5005710;28;20392;-96
2021/05/20 09:58:28;;;;;;;4.47;3.40;;;;;;;-150.07;51.78;61830.25;4992373;28;20026;-94
2021/05/20 10:00:59;;;;;;;9.50;4.32;;;;;;;-150.07;51.87;62315.78;4997808;28;20027;-93
2021/05/20 10:03:28;;;;;;;4.82;3.72;;;;;;;-150.07;52.05;62292.75;4960567;28;20034;-90
2021/05/20 10:05:59;;;;;;;11.88;4.10;;;;;;;-150.07;50.23;63366.59;4978995;28;20019;-94
2021/05/20 10:08:32;;;;;;;8.85;3.13;;;;;;;-150.07;49.83;63475.47;5008879;28;20037;-91
2021/05/20 10:11:04;;;;;;;8.73;3.65;;;;;;;-150.07;52.23;62085.56;4988087;28;20045;-92
2021/05/20 10:13:31;;;;;;;7.75;4.28;;;;;;;-150.07;55.07;61985.09;4983725;28;20531;-88
2021/05/20 10:16:00;;;;;;;4.72;2.80;;;;;;;-150.07;56.29;62403.69;4982565;28;20026;-93
2021/05/20 10:18:29;;;;;;;7.22;3.03;;;;;;;-150.07;56.99;61512.16;4999202;28;20084;-92
2021/05/20 10:20:58;;;;;;;6.78;2.85;;;;;;;-150.07;58.53;61767.47;4982876;28;20483;-94
2021/05/20 10:23:28;;;;;;;3.23;2.93;;;;;;;-150.07;58.32;61468.22;4985098;28;20045;-92
2021/05/20 10:25:57;;;;;;;3.72;3.10;;;;;;;-150.07;59.52;61742.34;4988175;28;20031;-93
2021/05/20 10:28:27;;;;;;;4.00;3.70;;;;;;;-150.07;59.10;62334.63;4987252;28;20504;-93
2021/05/20 10:30:57;;;;;;;5.20;4.07;;;;;;;-150.07;59.45;61323.84;4976877;28;20056;-92
2021/05/20 10:33:29;;;;;;;7.60;3.85;;;;;;;-150.07;59.69;61390.78;4984754;28;20395;-91
2021/05/20 10:36:00;;;;;;;5.40;3.35;;;;;;;-150.07;60.32;61704.69;5005519;28;20038;-95
2021/05/20 10:38:31;;;;;;;6.13;4.15;;;;;;;-150.07;59.39;61750.72;4988636;28;20046;-95
2021/05/20 10:41:17;;;;;;;5.38;3.55;;;;;;;-150.07;59.25;61727.69;4989590;28;20036;-94
2021/05/20 10:43:46;;;;;;;5.03;3.60;;;;;;;-150.07;60.42;62485.31;4987914;28;20030;-95
2021/05/20 10:46:18;;;;;;;7.45;3.40;;;;;;;-150.07;60.27;61700.50;4986529;28;20038;-94
2021/05/20 10:48:55;;;;;;;8.02;4.75;;;;;;;-150.07;61.57;60920.00;4987919;28;20034;-94
2021/05/20 10:51:38;;;;;;;8.25;4.28;;;;;;;-150.07;61.60;60986.97;4991020;28;20037;-94
2021/05/20 10:54:05;;;;;;;8.38;4.95;;;;;;;-150.07;61.54;61667.00;4995598;28;20052;-94
2021/05/20 10:56:41;;;;;;;8.25;5.45;;;;;;;-150.07;62.27;61715.16;5031578;28;20018;-94
2021/05/20 10:59:42;;;;;;;10.55;4.90;;;;;;;-150.07;61.87;61549.84;4999916;28;20027;-95
2021/05/20 11:02:19;;;;;;;5.75;4.45;;;;;;;-150.07;60.94;61754.91;4984668;28;20061;-93
2021/05/20 11:04:46;;;;;;;12.45;5.25;;;;;;;-150.07;61.25;62874.66;4988846;28;20042;-95
2021/05/20 11:07:14;;;;;;;8.68;6.03;;;;;;;-150.07;62.21;61472.41;4982484;28;20023;-94
2021/05/20 11:09:43;;;;;;;6.78;6.03;;;;;;;-150.07;61.88;61715.16;4998523;28;20102;-95
2021/05/20 11:12:13;;;;;;;8.55;6.95;;;;;;;-150.07;61.96;62784.63;5003795;28;20053;-94
2021/05/20 11:14:41;;;;;;;12.27;7.28;;;;;;;-150.07;62.22;62309.50;4983491;28;20026;-94
2021/05/20 11:17:39;;;;;;;10.93;7.90;;;;;;;-150.07;62.87;61692.13;4999794;28;20082;-95
2021/05/20 11:20:25;;;;;;;18.95;6.32;;;;;;;-150.07;63.44;61713.06;4989429;28;20038;-91
2021/05/20 11:23:21;;;;;;;13.30;6.95;;;;;;;-150.07;64.00;61671.19;5004343;28;20011;-91
2021/05/20 11:26:00;;;;;;;8.77;5.53;;;;;;;-150.07;64.14;62106.50;5017470;28;20029;-94
2021/05/20 11:28:28;;;;;;;7.60;5.45;;;;;;;-150.07;63.89;61020.44;4996078;28;20086;-92
2021/05/20 11:31:01;;;;;;;9.13;6.60;;;;;;;-150.07;64.19;61009.97;5001372;28;20114;-91
2021/05/20 11:33:33;;;;;;;7.82;5.53;;;;;;;-150.07;64.43;60838.41;5001831;28;20007;-94